createdAt,value
2017-07-04T00:00:26.357Z,99.90
2017-07-04T00:02:53.658Z,99.90
2017-07-04T00:05:19.932Z,99.90
2017-07-04T00:07:46.213Z,99.90
2017-07-04T00:10:13.495Z,99.90
2017-07-04T00:12:40.806Z,99.90
2017-07-04T00:15:07.077Z,99.90
2017-07-04T00:17:34.381Z,99.90
2017-07-04T00:20:00.681Z,99.90
2017-07-04T00:22:26.942Z,99.90
2017-07-04T00:24:53.210Z,99.90
2017-07-04T00:27:19.485Z,99.90
2017-07-04T00:29:45.777Z,99.90
2017-07-04T00:32:12.065Z,99.90
2017-07-04T00:34:39.077Z,99.90
2017-07-04T00:37:05.345Z,99.90
2017-07-04T00:39:31.597Z,99.90
2017-07-04T00:41:57.858Z,99.90
2017-07-04T00:44:24.149Z,99.90
2017-07-04T00:46:50.424Z,99.90
2017-07-04T00:49:16.698Z,99.90
2017-07-04T00:51:43.714Z,99.90
2017-07-04T00:54:09.993Z,99.90
2017-07-04T00:56:36.286Z,99.90
2017-07-04T00:59:03.293Z,99.90
2017-07-04T01:01:29.572Z,99.90
2017-07-04T01:03:56.593Z,99.90
2017-07-04T01:06:22.857Z,99.90
2017-07-04T01:08:49.169Z,99.90
2017-07-04T01:11:17.198Z,99.90
2017-07-04T01:13:44.501Z,99.90
2017-07-04T01:16:11.500Z,99.90
2017-07-04T01:18:37.805Z,99.90
2017-07-04T01:21:04.085Z,99.90
2017-07-04T01:23:30.345Z,99.90
2017-07-04T01:25:56.626Z,99.90
2017-07-04T01:28:22.898Z,99.90
2017-07-04T01:30:49.184Z,99.90
2017-07-04T01:33:15.457Z,99.90
2017-07-04T01:35:41.761Z,99.90
2017-07-04T01:38:08.031Z,99.90
2017-07-04T01:40:34.297Z,99.90
2017-07-04T01:43:00.584Z,99.90
2017-07-04T01:45:27.912Z,99.90
2017-07-04T01:47:54.933Z,99.90
2017-07-04T01:50:21.227Z,99.90
2017-07-04T01:52:47.550Z,99.90
2017-07-04T01:55:13.826Z,99.90
2017-07-04T01:57:40.114Z,99.90
2017-07-04T02:00:06.393Z,99.90
2017-07-04T02:02:32.677Z,99.90
2017-07-04T02:04:58.970Z,99.90
2017-07-04T02:07:25.236Z,99.90
2017-07-04T02:09:51.519Z,99.90
2017-07-04T02:12:25.068Z,99.90
2017-07-04T02:14:51.364Z,99.90
2017-07-04T02:17:17.617Z,99.90
2017-07-04T02:19:43.882Z,99.90
2017-07-04T02:22:10.165Z,99.90
2017-07-04T02:24:36.466Z,99.90
2017-07-04T02:27:02.717Z,99.90
2017-07-04T02:29:28.986Z,99.90
2017-07-04T02:31:55.249Z,99.90
2017-07-04T02:34:22.273Z,99.90
2017-07-04T02:36:48.597Z,99.90
2017-07-04T02:39:14.866Z,99.90
2017-07-04T02:41:41.127Z,99.90
2017-07-04T02:44:07.392Z,99.90
2017-07-04T02:46:33.691Z,99.90
2017-07-04T02:49:00.004Z,99.90
2017-07-04T02:51:26.262Z,99.90
2017-07-04T02:53:53.392Z,99.90
2017-07-04T02:56:19.669Z,99.90
2017-07-04T02:58:46.682Z,99.90
2017-07-04T03:01:12.985Z,99.90
2017-07-04T03:03:39.317Z,99.90
2017-07-04T03:06:05.572Z,99.90
2017-07-04T03:08:31.838Z,99.90
2017-07-04T03:10:58.845Z,99.90
2017-07-04T03:13:25.126Z,99.90
2017-07-04T03:15:51.393Z,99.90
2017-07-04T03:18:17.660Z,99.90
2017-07-04T03:20:43.943Z,99.90
2017-07-04T03:23:10.200Z,99.90
2017-07-04T03:25:37.481Z,99.90
2017-07-04T03:28:04.498Z,99.90
2017-07-04T03:30:30.763Z,99.90
2017-07-04T03:32:57.034Z,99.90
2017-07-04T03:35:23.317Z,99.90
2017-07-04T03:37:49.611Z,99.90
2017-07-04T03:40:15.869Z,99.90
2017-07-04T03:42:42.870Z,99.90
2017-07-04T03:45:09.170Z,99.90
2017-07-04T03:47:35.452Z,99.90
2017-07-04T03:50:01.740Z,99.90
2017-07-04T03:52:28.027Z,99.90
2017-07-04T03:54:54.352Z,99.90
2017-07-04T03:57:21.390Z,99.90
2017-07-04T03:59:47.656Z,99.90
2017-07-04T04:02:13.933Z,99.90
2017-07-04T04:04:40.205Z,99.90
2017-07-04T04:07:07.209Z,99.90
2017-07-04T04:09:34.159Z,99.90
2017-07-04T04:12:01.445Z,99.90
2017-07-04T04:14:28.738Z,99.90
2017-07-04T04:16:58.979Z,99.90
2017-07-04T04:19:25.242Z,99.90
2017-07-04T04:21:52.235Z,99.90
2017-07-04T04:24:18.501Z,99.90
2017-07-04T04:26:44.789Z,99.90
2017-07-04T04:29:11.050Z,99.90
2017-07-04T04:31:37.308Z,99.90
2017-07-04T04:34:04.329Z,99.90
2017-07-04T04:36:30.619Z,99.90
2017-07-04T04:38:56.906Z,99.90
2017-07-04T04:41:23.915Z,99.90
2017-07-04T04:43:50.172Z,99.90
2017-07-04T04:46:16.457Z,99.90
2017-07-04T04:48:42.714Z,99.90
2017-07-04T04:51:08.985Z,99.90
2017-07-04T04:53:35.257Z,99.90
2017-07-04T04:56:01.523Z,99.90
2017-07-04T04:58:28.553Z,99.90
2017-07-04T05:00:54.810Z,99.90
2017-07-04T05:03:21.817Z,99.90
2017-07-04T05:05:48.097Z,99.90
2017-07-04T05:08:14.377Z,99.90
2017-07-04T05:10:40.641Z,99.90
2017-07-04T05:13:07.321Z,99.90
2017-07-04T05:15:33.582Z,99.90
2017-07-04T05:17:59.877Z,99.90
2017-07-04T05:20:26.144Z,99.90
2017-07-04T05:22:52.408Z,99.90
2017-07-04T05:25:18.669Z,99.90
2017-07-04T05:27:44.925Z,99.90
2017-07-04T05:30:11.213Z,99.90
2017-07-04T05:32:37.473Z,99.90
2017-07-04T05:35:03.734Z,99.90
2017-07-04T05:37:30.737Z,99.90
2017-07-04T05:39:57.018Z,99.90
2017-07-04T05:42:23.297Z,99.90
2017-07-04T05:44:49.582Z,99.90
2017-07-04T05:47:15.833Z,99.90
2017-07-04T05:49:42.162Z,99.90
2017-07-04T05:52:08.437Z,99.90
2017-07-04T05:54:34.730Z,99.90
2017-07-04T05:57:00.993Z,99.90
2017-07-04T05:59:28.010Z,99.90
2017-07-04T06:01:54.298Z,99.90
2017-07-04T06:04:20.587Z,99.90
2017-07-04T06:06:46.881Z,99.90
2017-07-04T06:09:13.162Z,99.90
2017-07-04T06:11:40.166Z,99.90
2017-07-04T06:14:06.437Z,99.90
2017-07-04T06:16:33.442Z,99.90
2017-07-04T06:18:59.724Z,99.90
2017-07-04T06:21:25.996Z,99.90
2017-07-04T06:23:52.255Z,99.90
2017-07-04T06:26:18.509Z,99.90
2017-07-04T06:28:45.500Z,99.90
2017-07-04T06:31:11.785Z,99.90
2017-07-04T06:33:38.789Z,99.90
2017-07-04T06:36:05.049Z,99.90
2017-07-04T06:38:31.302Z,99.90
2017-07-04T06:40:58.078Z,99.90
2017-07-04T06:43:24.365Z,99.90
2017-07-04T06:45:50.629Z,99.90
2017-07-04T06:48:16.882Z,99.90
2017-07-04T06:50:43.142Z,99.90
2017-07-04T06:53:10.136Z,99.90
2017-07-04T06:55:37.445Z,99.90
2017-07-04T06:58:04.447Z,99.90
2017-07-04T07:00:30.697Z,99.90
2017-07-04T07:02:56.953Z,99.90
2017-07-04T07:05:23.215Z,99.90
2017-07-04T07:07:49.481Z,99.90
2017-07-04T07:10:15.737Z,99.90
2017-07-04T07:12:42.005Z,99.90
2017-07-04T07:15:08.293Z,99.90
2017-07-04T07:17:34.560Z,99.90
2017-07-04T07:20:00.823Z,99.90
2017-07-04T07:22:27.109Z,99.90
2017-07-04T07:24:53.365Z,99.90
2017-07-04T07:27:19.619Z,99.90
2017-07-04T07:29:46.645Z,99.90
2017-07-04T07:32:12.910Z,99.90
2017-07-04T07:34:39.913Z,99.90
2017-07-04T07:37:06.179Z,99.90
2017-07-04T07:39:32.462Z,99.90
2017-07-04T07:41:58.736Z,99.90
2017-07-04T07:44:25.745Z,99.10
2017-07-04T07:46:52.001Z,98.80
2017-07-04T07:49:18.260Z,98.60
2017-07-04T07:51:44.509Z,97.60
2017-07-04T07:54:10.786Z,97.10
2017-07-04T07:56:37.809Z,96.40
2017-07-04T07:59:04.063Z,96.80
2017-07-04T08:01:32.069Z,93.80
2017-07-04T08:03:58.317Z,93.80
2017-07-04T08:06:24.601Z,94.80
2017-07-04T08:08:51.609Z,90.80
2017-07-04T08:11:17.859Z,90.80
2017-07-04T08:13:44.853Z,82.70
2017-07-04T08:16:11.105Z,82.10
2017-07-04T08:18:37.386Z,82.40
2017-07-04T08:21:03.642Z,84.70
2017-07-04T08:23:29.912Z,84.80
2017-07-04T08:25:56.173Z,89.80
2017-07-04T08:28:22.429Z,87.50
2017-07-04T08:30:48.709Z,86.20
2017-07-04T08:33:15.715Z,88.20
2017-07-04T08:35:41.979Z,88.00
2017-07-04T08:38:09.006Z,90.60
2017-07-04T08:40:35.273Z,90.60
2017-07-04T08:43:01.547Z,87.90
2017-07-04T08:45:27.809Z,88.90
2017-07-04T08:47:54.060Z,85.60
2017-07-04T08:50:20.320Z,86.20
2017-07-04T08:52:46.577Z,79.60
2017-07-04T08:55:12.853Z,81.50
2017-07-04T08:57:40.162Z,78.10
2017-07-04T09:00:06.414Z,80.70
2017-07-04T09:02:33.410Z,75.10
2017-07-04T09:04:59.665Z,75.10
2017-07-04T09:07:25.949Z,78.80
2017-07-04T09:09:52.494Z,73.80
2017-07-04T09:12:18.749Z,67.80
2017-07-04T09:14:45.015Z,68.40
2017-07-04T09:17:12.011Z,72.80
2017-07-04T09:19:38.286Z,72.70
2017-07-04T09:22:05.288Z,74.00
2017-07-04T09:24:31.566Z,73.90
2017-07-04T09:26:57.830Z,75.90
2017-07-04T09:29:24.095Z,78.40
2017-07-04T09:31:50.382Z,77.80
2017-07-04T09:34:16.630Z,74.70
2017-07-04T09:36:42.885Z,69.80
2017-07-04T09:39:09.141Z,71.10
2017-07-04T09:41:35.409Z,71.50
2017-07-04T09:44:01.693Z,70.50
2017-07-04T09:46:28.690Z,67.70
2017-07-04T09:48:54.950Z,67.70
2017-07-04T09:51:21.203Z,70.20
2017-07-04T09:53:47.457Z,69.20
2017-07-04T09:56:13.738Z,67.40
2017-07-04T09:58:40.745Z,67.20
2017-07-04T10:01:07.000Z,66.90
2017-07-04T10:03:33.265Z,64.00
2017-07-04T10:05:59.533Z,65.50
2017-07-04T10:08:25.797Z,63.90
2017-07-04T10:10:52.808Z,61.10
2017-07-04T10:13:19.054Z,61.00
2017-07-04T10:15:45.325Z,61.00
2017-07-04T10:18:11.602Z,62.20
2017-07-04T10:20:37.858Z,63.60
2017-07-04T10:23:05.877Z,62.10
2017-07-04T10:25:32.146Z,61.40
2017-07-04T10:27:58.405Z,61.60
2017-07-04T10:30:24.664Z,63.80
2017-07-04T10:32:50.922Z,63.20
2017-07-04T10:35:17.227Z,62.10
2017-07-04T10:37:43.516Z,61.50
2017-07-04T10:40:10.522Z,60.50
2017-07-04T10:42:36.786Z,60.50
2017-07-04T10:45:03.797Z,62.60
2017-07-04T10:47:30.090Z,62.50
2017-07-04T10:49:56.338Z,64.10
2017-07-04T10:52:22.597Z,64.00
2017-07-04T10:54:48.879Z,68.30
2017-07-04T10:57:15.163Z,62.80
2017-07-04T10:59:43.186Z,60.20
2017-07-04T11:02:09.484Z,60.00
2017-07-04T11:04:35.745Z,63.50
2017-07-04T11:07:01.998Z,61.40
2017-07-04T11:09:28.258Z,59.10
2017-07-04T11:11:55.273Z,57.90
2017-07-04T11:14:21.529Z,57.90
2017-07-04T11:16:48.521Z,58.00
2017-07-04T11:19:14.777Z,57.90
2017-07-04T11:21:41.025Z,55.20
2017-07-04T11:24:08.041Z,57.10
2017-07-04T11:26:34.301Z,57.10
2017-07-04T11:29:01.300Z,57.60
2017-07-04T11:31:27.562Z,58.10
2017-07-04T11:33:53.833Z,57.70
2017-07-04T11:36:20.106Z,55.00
2017-07-04T11:38:46.379Z,55.90
2017-07-04T11:41:12.642Z,55.00
2017-07-04T11:43:38.911Z,52.40
2017-07-04T11:46:05.191Z,53.40
2017-07-04T11:48:31.466Z,56.60
2017-07-04T11:50:57.738Z,55.40
2017-07-04T11:53:23.986Z,55.50
2017-07-04T11:55:50.253Z,58.60
2017-07-04T11:58:16.562Z,53.10
2017-07-04T12:00:42.856Z,51.80
2017-07-04T12:03:09.111Z,51.40
2017-07-04T12:05:35.357Z,51.60
2017-07-04T12:08:01.613Z,53.60
2017-07-04T12:10:28.614Z,51.20
2017-07-04T12:12:54.893Z,51.00
2017-07-04T12:15:21.893Z,55.70
2017-07-04T12:17:48.149Z,55.80
2017-07-04T12:20:14.409Z,52.60
2017-07-04T12:22:40.668Z,53.20
2017-07-04T12:25:06.941Z,52.10
2017-07-04T12:27:33.941Z,52.70
2017-07-04T12:30:00.198Z,52.80
2017-07-04T12:32:26.506Z,53.30
2017-07-04T12:34:52.770Z,51.40
2017-07-04T12:37:19.792Z,49.40
2017-07-04T12:39:46.045Z,49.30
2017-07-04T12:42:13.041Z,48.80
2017-07-04T12:44:39.307Z,48.00
2017-07-04T12:47:05.557Z,50.70
2017-07-04T12:49:32.541Z,47.50
2017-07-04T12:51:58.816Z,47.40
2017-07-04T12:54:25.073Z,46.80
2017-07-04T12:56:51.333Z,47.70
2017-07-04T12:59:17.593Z,43.00
2017-07-04T13:01:43.860Z,42.70
2017-07-04T13:04:10.134Z,43.30
2017-07-04T13:06:36.850Z,44.40
2017-07-04T13:09:03.157Z,43.70
2017-07-04T13:11:29.416Z,42.80
2017-07-04T13:13:55.674Z,46.30
2017-07-04T13:16:21.954Z,46.00
2017-07-04T13:18:48.223Z,44.30
2017-07-04T13:21:14.513Z,44.20
2017-07-04T13:23:40.788Z,46.20
2017-07-04T13:26:07.154Z,45.60
2017-07-04T13:28:33.418Z,45.00
2017-07-04T13:30:59.679Z,44.20
2017-07-04T13:33:25.949Z,42.20
2017-07-04T13:35:52.217Z,40.20
2017-07-04T13:38:18.478Z,40.30
2017-07-04T13:40:45.517Z,41.10
2017-07-04T13:43:11.796Z,41.10
2017-07-04T13:45:38.061Z,43.60
2017-07-04T13:48:04.337Z,42.00
2017-07-04T13:50:30.601Z,42.90
2017-07-04T13:52:56.906Z,43.90
2017-07-04T13:55:23.174Z,40.00
2017-07-04T13:57:49.433Z,42.50
2017-07-04T14:00:15.703Z,39.80
2017-07-04T14:02:41.967Z,39.60
2017-07-04T14:05:08.242Z,37.70
2017-07-04T14:07:34.493Z,36.20
2017-07-04T14:10:00.756Z,35.80
2017-07-04T14:12:27.021Z,37.10
2017-07-04T14:14:53.273Z,38.60
2017-07-04T14:17:19.557Z,39.90
2017-07-04T14:19:46.557Z,38.80
2017-07-04T14:22:12.813Z,38.60
2017-07-04T14:24:39.091Z,33.40
2017-07-04T14:27:05.361Z,36.80
2017-07-04T14:29:31.665Z,35.70
2017-07-04T14:31:57.917Z,36.40
2017-07-04T14:34:24.174Z,34.60
2017-07-04T14:36:51.174Z,36.70
2017-07-04T14:39:17.430Z,36.50
2017-07-04T14:41:43.708Z,36.20
2017-07-04T14:44:09.961Z,34.10
2017-07-04T14:46:36.210Z,35.30
2017-07-04T14:49:02.469Z,34.70
2017-07-04T14:51:29.462Z,34.10
2017-07-04T14:53:55.734Z,34.10
2017-07-04T14:56:22.741Z,36.30
2017-07-04T14:58:49.026Z,36.20
2017-07-04T15:01:15.290Z,34.30
2017-07-04T15:03:41.550Z,34.30
2017-07-04T15:06:07.853Z,34.60
2017-07-04T15:08:34.110Z,33.30
2017-07-04T15:11:00.370Z,32.80
2017-07-04T15:13:26.636Z,35.00
2017-07-04T15:15:52.904Z,34.50
2017-07-04T15:18:19.173Z,33.20
2017-07-04T15:20:45.445Z,32.00
2017-07-04T15:23:11.693Z,33.40
2017-07-04T15:25:37.941Z,33.00
2017-07-04T15:28:04.214Z,33.10
2017-07-04T15:30:30.486Z,31.90
2017-07-04T15:32:57.811Z,30.30
2017-07-04T15:35:24.078Z,30.50
2017-07-04T15:37:50.338Z,29.80
2017-07-04T15:40:16.614Z,30.20
2017-07-04T15:42:42.873Z,32.30
2017-07-04T15:45:09.129Z,32.30
2017-07-04T15:47:35.391Z,30.60
2017-07-04T15:50:01.651Z,33.80
2017-07-04T15:52:27.941Z,33.00
2017-07-04T15:54:54.202Z,32.60
2017-07-04T15:57:21.193Z,30.70
2017-07-04T15:59:47.442Z,30.60
2017-07-04T16:02:13.694Z,32.20
2017-07-04T16:04:40.710Z,32.60
2017-07-04T16:07:06.978Z,32.50
2017-07-04T16:09:33.244Z,33.60
2017-07-04T16:11:59.497Z,33.50
2017-07-04T16:14:26.777Z,34.00
2017-07-04T16:16:53.806Z,34.90
2017-07-04T16:19:20.218Z,34.20
2017-07-04T16:21:46.478Z,35.90
2017-07-04T16:24:12.740Z,35.00
2017-07-04T16:26:39.001Z,32.20
2017-07-04T16:29:05.307Z,33.00
2017-07-04T16:31:31.566Z,32.60
2017-07-04T16:33:57.821Z,31.90
2017-07-04T16:36:24.839Z,32.60
2017-07-04T16:38:51.097Z,32.50
2017-07-04T16:41:18.129Z,31.80
2017-07-04T16:43:44.406Z,31.80
2017-07-04T16:46:10.665Z,31.30
2017-07-04T16:48:36.925Z,32.30
2017-07-04T16:51:03.197Z,32.50
2017-07-04T16:53:29.479Z,32.10
2017-07-04T16:55:55.753Z,34.80
2017-07-04T16:58:22.038Z,35.00
2017-07-04T17:00:49.331Z,34.80
2017-07-04T17:03:16.653Z,34.90
2017-07-04T17:05:42.941Z,38.00
2017-07-04T17:08:09.202Z,34.80
2017-07-04T17:10:36.566Z,34.60
2017-07-04T17:13:03.561Z,34.10
2017-07-04T17:15:29.941Z,34.10
2017-07-04T17:17:56.964Z,39.90
2017-07-04T17:20:23.238Z,39.50
2017-07-04T17:22:49.722Z,43.70
2017-07-04T17:25:15.984Z,45.90
2017-07-04T17:27:42.247Z,46.90
2017-07-04T17:30:08.541Z,47.30
2017-07-04T17:32:35.562Z,45.70
2017-07-04T17:35:01.817Z,45.60
2017-07-04T17:37:28.898Z,47.60
2017-07-04T17:39:55.691Z,47.60
2017-07-04T17:42:22.083Z,49.30
2017-07-04T17:44:48.353Z,51.20
2017-07-04T17:47:14.609Z,50.50
2017-07-04T17:49:40.867Z,49.70
2017-07-04T17:52:07.137Z,50.90
2017-07-04T17:54:33.437Z,52.90
2017-07-04T17:56:59.722Z,53.30
2017-07-04T17:59:27.009Z,53.30
2017-07-04T18:01:53.798Z,53.70
2017-07-04T18:04:20.053Z,55.00
2017-07-04T18:06:46.321Z,53.40
2017-07-04T18:09:12.639Z,53.30
2017-07-04T18:11:38.905Z,54.00
2017-07-04T18:14:05.173Z,54.90
2017-07-04T18:16:31.462Z,56.20
2017-07-04T18:18:57.754Z,61.00
2017-07-04T18:21:24.043Z,63.40
2017-07-04T18:23:50.306Z,65.50
2017-07-04T18:26:16.591Z,68.60
2017-07-04T18:28:43.631Z,73.50
2017-07-04T18:31:09.914Z,74.20
2017-07-04T18:33:36.242Z,74.30
2017-07-04T18:36:02.513Z,75.70
2017-07-04T18:38:28.822Z,77.00
2017-07-04T18:40:55.077Z,81.40
2017-07-04T18:43:21.329Z,83.00
2017-07-04T18:45:47.616Z,88.20
2017-07-04T18:48:13.869Z,89.10
2017-07-04T18:50:40.875Z,93.00
2017-07-04T18:53:07.141Z,93.00
2017-07-04T18:55:34.137Z,91.50
2017-07-04T18:58:00.430Z,91.40
2017-07-04T19:00:26.764Z,95.80
2017-07-04T19:02:53.047Z,92.80
2017-07-04T19:05:19.318Z,90.90
2017-07-04T19:07:46.326Z,95.30
2017-07-04T19:10:12.677Z,95.30
2017-07-04T19:12:39.689Z,99.90
2017-07-04T19:15:05.945Z,99.90
2017-07-04T19:17:32.202Z,99.40
2017-07-04T19:19:58.473Z,99.90
2017-07-04T19:22:24.764Z,99.90
2017-07-04T19:24:51.035Z,99.90
2017-07-04T19:27:17.340Z,99.90
2017-07-04T19:29:43.605Z,99.90
2017-07-04T19:32:09.881Z,99.90
2017-07-04T19:34:36.166Z,99.90
2017-07-04T19:37:02.431Z,99.90
2017-07-04T19:39:28.713Z,99.90
2017-07-04T19:41:54.965Z,99.90
2017-07-04T19:44:21.257Z,99.90
2017-07-04T19:46:47.575Z,99.90
2017-07-04T19:49:13.894Z,99.90
2017-07-04T19:51:40.154Z,99.90
2017-07-04T19:54:06.437Z,99.90
2017-07-04T19:56:32.726Z,99.90
2017-07-04T19:58:59.045Z,99.90
2017-07-04T20:01:25.418Z,99.90
2017-07-04T20:03:52.417Z,99.90
2017-07-04T20:06:18.691Z,99.90
2017-07-04T20:08:45.762Z,99.90
2017-07-04T20:11:12.146Z,99.90
2017-07-04T20:13:38.414Z,99.90
2017-07-04T20:16:05.315Z,99.90
2017-07-04T20:18:31.577Z,99.90
2017-07-04T20:20:57.846Z,99.90
2017-07-04T20:23:24.130Z,99.90
2017-07-04T20:25:50.433Z,99.90
2017-07-04T20:28:16.706Z,99.90
2017-07-04T20:30:42.969Z,99.90
2017-07-04T20:33:09.234Z,99.90
2017-07-04T20:35:35.525Z,99.90
2017-07-04T20:38:01.809Z,99.90
2017-07-04T20:40:28.879Z,99.90
2017-07-04T20:42:55.150Z,99.90
2017-07-04T20:45:21.444Z,99.90
2017-07-04T20:47:47.706Z,99.90
2017-07-04T20:50:13.974Z,99.90
2017-07-04T20:52:40.229Z,99.90
2017-07-04T20:55:06.509Z,99.90
2017-07-04T20:57:32.795Z,99.90
2017-07-04T20:59:59.070Z,99.90
2017-07-04T21:02:26.118Z,99.90
2017-07-04T21:04:53.126Z,99.90
2017-07-04T21:07:19.394Z,99.90
2017-07-04T21:09:46.430Z,99.90
2017-07-04T21:12:13.441Z,99.90
2017-07-04T21:14:39.700Z,99.90
2017-07-04T21:17:05.960Z,99.90
2017-07-04T21:19:32.217Z,99.90
2017-07-04T21:21:58.505Z,99.90
2017-07-04T21:24:25.509Z,99.90
2017-07-04T21:26:51.777Z,99.90
2017-07-04T21:29:18.785Z,99.90
2017-07-04T21:31:45.053Z,99.90
2017-07-04T21:34:12.082Z,99.90
2017-07-04T21:36:38.346Z,99.90
2017-07-04T21:39:04.605Z,99.90
2017-07-04T21:41:30.871Z,99.90
2017-07-04T21:43:57.166Z,99.90
2017-07-04T21:46:24.486Z,99.90
2017-07-04T21:48:50.762Z,99.90
2017-07-04T21:51:17.022Z,99.90
2017-07-04T21:53:43.309Z,99.90
2017-07-04T21:56:09.594Z,99.90
2017-07-04T21:58:35.891Z,99.90
2017-07-04T22:01:02.172Z,99.90
2017-07-04T22:03:28.466Z,99.90
2017-07-04T22:05:54.748Z,99.90
2017-07-04T22:08:22.049Z,99.90
2017-07-04T22:10:49.077Z,99.90
2017-07-04T22:13:15.338Z,99.90
2017-07-04T22:15:41.610Z,99.90
2017-07-04T22:18:07.882Z,99.90
2017-07-04T22:20:34.935Z,99.90
2017-07-04T22:23:02.998Z,99.90
2017-07-04T22:25:30.010Z,99.90
2017-07-04T22:27:56.289Z,99.90
2017-07-04T22:30:22.563Z,99.90
2017-07-04T22:32:48.838Z,99.90
2017-07-04T22:35:15.862Z,99.90
2017-07-04T22:37:42.134Z,99.90
2017-07-04T22:40:08.415Z,99.90
2017-07-04T22:42:34.691Z,99.90
2017-07-04T22:45:00.969Z,99.90
2017-07-04T22:47:27.269Z,99.90
2017-07-04T22:49:53.536Z,99.90
2017-07-04T22:52:20.831Z,99.90
2017-07-04T22:54:48.149Z,99.90
2017-07-04T22:57:15.451Z,99.90
2017-07-04T22:59:41.750Z,99.90
2017-07-04T23:02:08.005Z,99.90
2017-07-04T23:04:34.281Z,99.90
2017-07-04T23:07:01.307Z,99.90
2017-07-04T23:09:27.606Z,99.90
2017-07-04T23:11:53.914Z,99.90
2017-07-04T23:14:20.185Z,99.90
2017-07-04T23:16:46.494Z,99.90
2017-07-04T23:19:12.809Z,99.90
2017-07-04T23:21:39.081Z,99.90
2017-07-04T23:24:05.342Z,99.90
2017-07-04T23:26:31.646Z,99.90
2017-07-04T23:28:57.911Z,99.90
2017-07-04T23:31:24.926Z,99.90
2017-07-04T23:33:51.186Z,99.90
2017-07-04T23:36:18.209Z,99.90
2017-07-04T23:38:44.502Z,99.90
2017-07-04T23:41:10.766Z,99.90
2017-07-04T23:43:37.042Z,99.90
2017-07-04T23:46:03.317Z,99.90
2017-07-04T23:48:29.582Z,99.90
2017-07-04T23:50:55.865Z,99.90
2017-07-04T23:53:22.149Z,99.90
2017-07-04T23:55:48.445Z,99.90
2017-07-04T23:58:14.759Z,99.90
